createdAt,value
2018-05-25T00:00:36.814Z,23.30
2018-05-25T00:03:05.616Z,26.63
2018-05-25T00:05:34.661Z,24.20
2018-05-25T00:08:02.937Z,32.23
2018-05-25T00:10:31.243Z,30.30
2018-05-25T00:13:00.380Z,28.97
2018-05-25T00:15:29.457Z,40.77
2018-05-25T00:17:57.725Z,26.37
2018-05-25T00:20:25.984Z,41.10
2018-05-25T00:22:54.301Z,21.47
2018-05-25T00:25:22.599Z,32.10
2018-05-25T00:27:50.948Z,47.03
2018-05-25T00:30:19.252Z,26.13
2018-05-25T00:32:47.553Z,24.77
2018-05-25T00:35:15.827Z,30.73
2018-05-25T00:37:44.101Z,25.57
2018-05-25T00:40:12.822Z,28.77
2018-05-25T00:42:41.106Z,24.07
2018-05-25T00:45:09.394Z,24.80
2018-05-25T00:47:37.679Z,33.73
2018-05-25T00:50:05.967Z,24.70
2018-05-25T00:52:34.275Z,25.67
2018-05-25T00:55:20.284Z,24.37
2018-05-25T00:57:50.534Z,27.30
2018-05-25T01:00:18.845Z,20.07
2018-05-25T01:02:47.128Z,29.47
2018-05-25T01:05:17.096Z,23.03
2018-05-25T01:07:46.895Z,23.70
2018-05-25T01:10:15.180Z,31.13
2018-05-25T01:12:43.552Z,33.33
2018-05-25T01:15:11.828Z,32.30
2018-05-25T01:17:40.138Z,27.43
2018-05-25T01:20:08.416Z,44.83
2018-05-25T01:22:36.746Z,26.97
2018-05-25T01:25:05.049Z,27.40
2018-05-25T01:27:33.316Z,26.33
2018-05-25T01:30:01.624Z,26.00
2018-05-25T01:32:29.905Z,29.30
2018-05-25T01:34:58.224Z,142.93
2018-05-25T01:37:26.507Z,30.80
2018-05-25T01:39:55.557Z,26.97
2018-05-25T01:42:23.858Z,31.60
2018-05-25T01:44:52.918Z,28.60
2018-05-25T01:47:21.260Z,26.23
2018-05-25T01:49:49.572Z,24.77
2018-05-25T01:52:17.869Z,29.53
2018-05-25T01:54:46.146Z,23.70
2018-05-25T01:57:14.435Z,25.13
2018-05-25T01:59:42.719Z,22.67
2018-05-25T02:02:11.005Z,36.13
2018-05-25T02:04:39.294Z,26.63
2018-05-25T02:07:08.363Z,24.20
2018-05-25T02:09:36.649Z,26.20
2018-05-25T02:12:05.701Z,26.73
2018-05-25T02:14:33.986Z,30.33
2018-05-25T02:17:02.261Z,30.43
2018-05-25T02:19:30.555Z,41.83
2018-05-25T02:21:58.833Z,47.97
2018-05-25T02:24:29.114Z,42.50
2018-05-25T02:26:58.160Z,36.90
2018-05-25T02:29:26.457Z,37.17
2018-05-25T02:31:54.756Z,41.97
2018-05-25T02:34:23.814Z,52.27
2018-05-25T02:36:52.132Z,39.10
2018-05-25T02:39:20.425Z,33.03
2018-05-25T02:41:48.728Z,43.27
2018-05-25T02:44:17.984Z,38.67
2018-05-25T02:46:47.052Z,41.10
2018-05-25T02:49:15.356Z,46.07
2018-05-25T02:51:44.388Z,31.47
2018-05-25T02:54:12.682Z,35.93
2018-05-25T02:56:40.984Z,33.10
2018-05-25T02:59:09.253Z,38.00
2018-05-25T03:01:40.491Z,37.00
2018-05-25T03:04:09.538Z,38.30
2018-05-25T03:06:37.820Z,37.23
2018-05-25T03:09:06.942Z,47.53
2018-05-25T03:11:35.222Z,32.77
2018-05-25T03:14:03.536Z,40.43
2018-05-25T03:16:31.819Z,44.80
2018-05-25T03:19:00.092Z,29.30
2018-05-25T03:21:28.405Z,32.87
2018-05-25T03:23:56.686Z,30.43
2018-05-25T03:26:25.025Z,34.80
2018-05-25T03:28:53.316Z,33.80
2018-05-25T03:31:21.625Z,36.87
2018-05-25T03:33:49.921Z,35.93
2018-05-25T03:36:18.209Z,31.33
2018-05-25T03:38:46.523Z,33.87
2018-05-25T03:41:14.796Z,30.57
2018-05-25T03:43:43.105Z,30.37
2018-05-25T03:46:12.373Z,48.80
2018-05-25T03:48:40.823Z,36.57
2018-05-25T03:51:09.128Z,36.17
2018-05-25T03:53:39.324Z,35.47
2018-05-25T03:56:07.602Z,37.53
2018-05-25T03:58:53.529Z,36.80
2018-05-25T04:01:39.357Z,34.30
2018-05-25T04:04:07.631Z,35.00
2018-05-25T04:06:35.951Z,37.10
2018-05-25T04:09:08.753Z,42.17
2018-05-25T04:11:37.018Z,61.13
2018-05-25T04:14:05.334Z,44.63
2018-05-25T04:16:33.606Z,40.47
2018-05-25T04:19:01.911Z,38.27
2018-05-25T04:21:30.224Z,38.70
2018-05-25T04:23:58.501Z,46.77
2018-05-25T04:26:26.806Z,46.60
2018-05-25T04:28:55.085Z,55.43
2018-05-25T04:31:23.464Z,44.03
2018-05-25T04:33:51.816Z,54.10
2018-05-25T04:36:20.098Z,53.00
2018-05-25T04:38:49.161Z,44.63
2018-05-25T04:41:17.454Z,49.93
2018-05-25T04:43:45.780Z,45.50
2018-05-25T04:46:14.084Z,44.83
2018-05-25T04:48:42.381Z,41.23
2018-05-25T04:51:14.485Z,54.00
2018-05-25T04:53:42.773Z,55.50
2018-05-25T04:56:11.123Z,41.60
2018-05-25T04:58:39.435Z,47.10
2018-05-25T05:01:07.705Z,39.73
2018-05-25T05:03:37.950Z,43.47
2018-05-25T05:06:07.013Z,46.50
2018-05-25T05:08:35.344Z,41.43
2018-05-25T05:11:03.631Z,46.20
2018-05-25T05:13:32.971Z,44.67
2018-05-25T05:16:01.268Z,46.00
2018-05-25T05:18:29.604Z,42.50
2018-05-25T05:20:58.834Z,51.37
2018-05-25T05:23:27.127Z,40.90
2018-05-25T05:25:55.827Z,43.40
2018-05-25T05:28:24.872Z,41.53
2018-05-25T05:30:53.143Z,42.80
2018-05-25T05:33:21.440Z,42.83
2018-05-25T05:35:50.507Z,39.17
2018-05-25T05:38:18.932Z,39.40
2018-05-25T05:40:47.197Z,43.50
2018-05-25T05:43:15.471Z,50.37
2018-05-25T05:45:43.768Z,50.27
2018-05-25T05:48:12.036Z,43.50
2018-05-25T05:50:40.348Z,45.50
2018-05-25T05:53:08.640Z,41.07
2018-05-25T05:55:36.924Z,45.90
2018-05-25T05:58:05.231Z,46.17
2018-05-25T06:00:33.509Z,51.30
2018-05-25T06:03:01.865Z,39.00
2018-05-25T06:05:30.142Z,42.70
2018-05-25T06:07:58.416Z,44.23
2018-05-25T06:10:26.704Z,56.80
2018-05-25T06:12:54.978Z,41.93
2018-05-25T06:15:23.289Z,43.27
2018-05-25T06:17:51.564Z,50.30
2018-05-25T06:20:19.852Z,46.33
2018-05-25T06:22:48.175Z,48.03
2018-05-25T06:25:17.236Z,46.07
2018-05-25T06:27:45.543Z,41.40
2018-05-25T06:30:13.837Z,43.80
2018-05-25T06:32:42.101Z,45.17
2018-05-25T06:35:11.223Z,44.93
2018-05-25T06:37:39.539Z,48.30
2018-05-25T06:40:07.845Z,47.17
2018-05-25T06:42:36.921Z,47.40
2018-05-25T06:45:05.231Z,39.53
2018-05-25T06:47:33.569Z,47.10
2018-05-25T06:50:01.892Z,40.93
2018-05-25T06:52:30.194Z,40.60
2018-05-25T06:54:58.475Z,41.43
2018-05-25T06:57:26.801Z,41.10
2018-05-25T06:59:55.229Z,42.10
2018-05-25T07:02:23.565Z,32.67
2018-05-25T07:04:51.847Z,40.00
2018-05-25T07:07:20.143Z,40.00
2018-05-25T07:09:49.195Z,40.67
2018-05-25T07:12:17.496Z,34.97
2018-05-25T07:14:45.822Z,39.97
2018-05-25T07:17:15.021Z,42.10
2018-05-25T07:19:43.318Z,42.63
2018-05-25T07:22:11.613Z,42.40
2018-05-25T07:24:39.891Z,37.80
2018-05-25T07:27:08.191Z,41.87
2018-05-25T07:29:36.485Z,37.50
2018-05-25T07:32:04.762Z,41.93
2018-05-25T07:34:33.850Z,34.60
2018-05-25T07:37:02.144Z,38.77
2018-05-25T07:39:30.447Z,40.13
2018-05-25T07:41:58.740Z,42.13
2018-05-25T07:44:27.008Z,35.80
2018-05-25T07:46:55.319Z,38.90
2018-05-25T07:49:23.697Z,37.17
2018-05-25T07:51:52.015Z,37.70
2018-05-25T07:54:20.322Z,37.47
2018-05-25T07:56:48.588Z,36.17
2018-05-25T07:59:16.888Z,41.03
2018-05-25T08:01:45.163Z,39.27
2018-05-25T08:04:13.436Z,37.70
2018-05-25T08:06:41.743Z,34.87
2018-05-25T08:09:10.055Z,33.30
2018-05-25T08:11:38.371Z,34.63
2018-05-25T08:14:06.629Z,26.90
2018-05-25T08:16:34.916Z,29.93
2018-05-25T08:19:03.196Z,30.50
2018-05-25T08:21:31.476Z,27.83
2018-05-25T08:23:59.793Z,33.13
2018-05-25T08:26:28.071Z,26.53
2018-05-25T08:28:56.348Z,26.20
2018-05-25T08:31:24.656Z,26.43
2018-05-25T08:33:53.701Z,24.70
2018-05-25T08:36:21.981Z,26.10
2018-05-25T08:38:50.261Z,29.13
2018-05-25T08:41:18.533Z,26.73
2018-05-25T08:43:46.833Z,25.97
2018-05-25T08:46:16.020Z,21.77
2018-05-25T08:48:44.332Z,23.70
2018-05-25T08:51:13.383Z,25.60
2018-05-25T08:53:41.659Z,27.20
2018-05-25T08:56:09.935Z,29.43
2018-05-25T08:58:38.206Z,25.40
2018-05-25T09:01:06.509Z,24.70
2018-05-25T09:03:34.800Z,28.27
2018-05-25T09:06:03.137Z,20.60
2018-05-25T09:08:31.420Z,21.00
2018-05-25T09:10:59.711Z,23.60
2018-05-25T09:13:28.010Z,43.87
2018-05-25T09:15:56.303Z,20.03
2018-05-25T09:18:25.361Z,23.83
2018-05-25T09:20:53.646Z,23.00
2018-05-25T09:23:21.967Z,21.27
2018-05-25T09:25:51.106Z,20.03
2018-05-25T09:28:19.378Z,22.47
2018-05-25T09:30:47.679Z,22.17
2018-05-25T09:33:15.977Z,20.50
2018-05-25T09:35:44.265Z,19.60
2018-05-25T09:38:13.336Z,18.67
2018-05-25T09:40:41.621Z,18.33
2018-05-25T09:43:09.945Z,13.47
2018-05-25T09:45:38.206Z,17.27
2018-05-25T09:48:07.263Z,14.17
2018-05-25T09:50:35.555Z,16.87
2018-05-25T09:53:03.829Z,12.77
2018-05-25T09:55:32.122Z,17.40
2018-05-25T09:58:00.434Z,14.60
2018-05-25T10:00:28.730Z,13.80
2018-05-25T10:02:56.992Z,13.30
2018-05-25T10:05:25.302Z,12.73
2018-05-25T10:07:53.594Z,27.40
2018-05-25T10:10:23.811Z,12.40
2018-05-25T10:12:53.708Z,12.40
2018-05-25T10:15:22.010Z,15.60
2018-05-25T10:17:50.352Z,10.87
2018-05-25T10:20:18.595Z,11.67
2018-05-25T10:22:47.645Z,10.80
2018-05-25T10:25:15.910Z,12.33
2018-05-25T10:27:46.149Z,11.60
2018-05-25T10:30:14.454Z,31.07
2018-05-25T10:32:42.736Z,12.53
2018-05-25T10:35:11.866Z,9.43
2018-05-25T10:37:40.129Z,13.10
2018-05-25T10:40:08.404Z,10.10
2018-05-25T10:42:37.471Z,8.00
2018-05-25T10:45:05.756Z,8.20
2018-05-25T10:47:34.821Z,9.17
2018-05-25T10:50:03.126Z,7.30
2018-05-25T10:52:31.400Z,7.47
2018-05-25T10:54:59.706Z,8.50
2018-05-25T10:57:28.733Z,6.30
2018-05-25T10:59:57.035Z,7.10
2018-05-25T11:02:25.308Z,8.00
2018-05-25T11:04:53.590Z,4.93
2018-05-25T11:07:21.868Z,4.70
2018-05-25T11:09:50.136Z,6.57
2018-05-25T11:12:18.423Z,4.50
2018-05-25T11:14:46.689Z,6.63
2018-05-25T11:17:14.976Z,6.70
2018-05-25T11:19:43.276Z,4.43
2018-05-25T11:22:11.575Z,6.43
2018-05-25T11:24:40.618Z,7.60
2018-05-25T11:27:08.911Z,7.13
2018-05-25T11:29:37.196Z,5.27
2018-05-25T11:32:05.477Z,5.50
2018-05-25T11:34:33.784Z,6.83
2018-05-25T11:37:02.049Z,6.43
2018-05-25T11:39:31.287Z,4.27
2018-05-25T11:41:59.585Z,6.00
2018-05-25T11:44:27.848Z,3.90
2018-05-25T11:46:56.132Z,5.07
2018-05-25T11:49:24.842Z,3.63
2018-05-25T11:51:53.138Z,3.90
2018-05-25T11:54:21.416Z,3.67
2018-05-25T11:56:49.701Z,3.43
2018-05-25T11:59:17.981Z,3.40
2018-05-25T12:01:46.331Z,3.73
2018-05-25T12:04:14.578Z,4.00
2018-05-25T12:06:42.870Z,5.83
2018-05-25T12:09:11.236Z,6.93
2018-05-25T12:11:39.526Z,3.60
2018-05-25T12:14:07.804Z,4.07
2018-05-25T12:16:36.067Z,7.80
2018-05-25T12:19:06.321Z,5.53
2018-05-25T12:21:34.603Z,9.80
2018-05-25T12:24:02.881Z,4.67
2018-05-25T12:26:31.179Z,3.53
2018-05-25T12:28:59.444Z,4.20
2018-05-25T12:31:27.758Z,3.43
2018-05-25T12:33:56.033Z,3.70
2018-05-25T12:36:25.837Z,4.80
2018-05-25T12:38:54.135Z,3.50
2018-05-25T12:41:22.440Z,5.70
2018-05-25T12:43:50.714Z,8.77
2018-05-25T12:46:18.992Z,3.33
2018-05-25T12:48:47.295Z,3.50
2018-05-25T12:51:15.545Z,3.57
2018-05-25T12:53:43.819Z,3.90
2018-05-25T12:56:12.110Z,3.17
2018-05-25T12:58:40.362Z,3.90
2018-05-25T13:01:09.704Z,3.97
2018-05-25T13:03:37.997Z,3.03
2018-05-25T13:06:06.289Z,4.30
2018-05-25T13:08:34.562Z,4.67
2018-05-25T13:11:02.873Z,3.47
2018-05-25T13:13:31.130Z,5.80
2018-05-25T13:16:00.171Z,3.40
2018-05-25T13:18:28.455Z,5.13
2018-05-25T13:20:56.734Z,6.00
2018-05-25T13:23:25.009Z,5.20
2018-05-25T13:25:53.301Z,3.70
2018-05-25T13:28:21.589Z,5.40
2018-05-25T13:30:49.966Z,6.27
2018-05-25T13:33:18.325Z,7.10
2018-05-25T13:35:46.598Z,4.50
2018-05-25T13:38:14.882Z,5.93
2018-05-25T13:40:43.147Z,4.50
2018-05-25T13:43:11.495Z,4.53
2018-05-25T13:45:40.534Z,4.07
2018-05-25T13:48:08.782Z,7.10
2018-05-25T13:50:37.069Z,3.63
2018-05-25T13:53:05.348Z,4.67
2018-05-25T13:55:37.300Z,5.00
2018-05-25T13:58:07.659Z,5.90
2018-05-25T14:00:35.944Z,4.53
2018-05-25T14:03:04.246Z,6.17
2018-05-25T14:05:32.527Z,3.70
2018-05-25T14:08:01.045Z,6.20
2018-05-25T14:10:29.333Z,4.93
2018-05-25T14:12:57.621Z,5.63
2018-05-25T14:15:25.942Z,6.30
2018-05-25T14:17:54.219Z,5.00
2018-05-25T14:20:22.505Z,3.97
2018-05-25T14:22:50.769Z,13.07
2018-05-25T14:25:19.045Z,3.60
2018-05-25T14:27:47.380Z,4.00
2018-05-25T14:30:15.666Z,10.57
2018-05-25T14:32:43.955Z,3.37
2018-05-25T14:35:12.231Z,4.53
2018-05-25T14:37:40.499Z,8.10
2018-05-25T14:40:08.812Z,9.03
2018-05-25T14:42:37.076Z,3.93
2018-05-25T14:45:05.364Z,6.87
2018-05-25T14:47:33.642Z,4.60
2018-05-25T14:50:01.935Z,3.70
2018-05-25T14:52:30.305Z,3.80
2018-05-25T14:54:58.577Z,4.73
2018-05-25T14:57:26.913Z,6.43
2018-05-25T14:59:56.246Z,3.50
2018-05-25T15:02:24.530Z,3.90
2018-05-25T15:04:52.817Z,5.60
2018-05-25T15:07:21.089Z,5.10
2018-05-25T15:09:49.351Z,8.53
2018-05-25T15:12:18.783Z,5.93
2018-05-25T15:14:47.081Z,8.40
2018-05-25T15:17:15.353Z,12.70
2018-05-25T15:19:43.634Z,10.97
2018-05-25T15:22:11.947Z,12.90
2018-05-25T15:24:40.796Z,7.40
2018-05-25T15:27:09.972Z,5.30
2018-05-25T15:29:38.249Z,7.77
2018-05-25T15:32:06.564Z,8.53
2018-05-25T15:34:34.842Z,10.13
2018-05-25T15:37:03.879Z,4.97
2018-05-25T15:39:37.888Z,6.23
2018-05-25T15:42:06.176Z,6.77
2018-05-25T15:44:34.463Z,5.27
2018-05-25T15:47:02.786Z,10.57
2018-05-25T15:49:32.147Z,10.77
2018-05-25T15:52:00.503Z,6.53
2018-05-25T15:54:29.781Z,14.83
2018-05-25T15:56:58.055Z,28.53
2018-05-25T15:59:27.095Z,10.27
2018-05-25T16:01:55.414Z,12.93
2018-05-25T16:04:24.432Z,6.20
2018-05-25T16:06:52.684Z,12.23
2018-05-25T16:09:21.069Z,7.73
2018-05-25T16:11:50.147Z,5.03
2018-05-25T16:14:18.461Z,6.00
2018-05-25T16:16:46.724Z,6.50
2018-05-25T16:19:14.989Z,4.57
2018-05-25T16:21:43.246Z,8.30
2018-05-25T16:24:11.533Z,4.07
2018-05-25T16:26:39.812Z,5.73
2018-05-25T16:29:08.615Z,11.63
2018-05-25T16:31:36.904Z,5.60
2018-05-25T16:34:06.110Z,4.60
2018-05-25T16:36:34.398Z,12.47
2018-05-25T16:39:02.671Z,7.37
2018-05-25T16:41:31.937Z,8.93
2018-05-25T16:44:00.334Z,4.20
2018-05-25T16:46:28.679Z,6.40
2018-05-25T16:48:57.715Z,16.33
2018-05-25T16:51:26.001Z,10.17
2018-05-25T16:53:54.293Z,7.13
2018-05-25T16:56:23.045Z,6.37
2018-05-25T16:58:51.345Z,6.57
2018-05-25T17:01:19.612Z,45.97
2018-05-25T17:03:50.141Z,13.83
2018-05-25T17:06:18.453Z,8.50
2018-05-25T17:08:46.785Z,12.20
2018-05-25T17:11:15.101Z,9.83
2018-05-25T17:13:44.429Z,13.70
2018-05-25T17:16:12.745Z,9.37
2018-05-25T17:18:41.035Z,8.53
2018-05-25T17:21:09.344Z,5.70
2018-05-25T17:23:38.398Z,14.67
2018-05-25T17:26:06.686Z,7.67
2018-05-25T17:28:34.972Z,10.50
2018-05-25T17:31:03.301Z,14.40
2018-05-25T17:33:31.581Z,15.33
2018-05-25T17:36:00.976Z,12.37
2018-05-25T17:38:29.260Z,6.77
2018-05-25T17:40:57.554Z,11.53
2018-05-25T17:43:25.835Z,7.97
2018-05-25T17:45:54.124Z,12.30
2018-05-25T17:48:23.193Z,14.00
2018-05-25T17:50:51.471Z,10.60
2018-05-25T17:53:19.755Z,10.53
2018-05-25T17:55:48.048Z,13.00
2018-05-25T17:58:18.674Z,9.37
2018-05-25T18:00:46.977Z,13.00
2018-05-25T18:03:15.248Z,10.63
2018-05-25T18:05:43.516Z,15.47
2018-05-25T18:08:11.815Z,7.73
2018-05-25T18:10:40.097Z,20.03
2018-05-25T18:13:09.161Z,10.23
2018-05-25T18:15:37.426Z,9.00
2018-05-25T18:18:05.685Z,12.40
2018-05-25T18:20:34.093Z,12.67
2018-05-25T18:23:02.465Z,12.60
2018-05-25T18:25:32.516Z,6.17
2018-05-25T18:28:00.808Z,24.30
2018-05-25T18:30:29.876Z,13.33
2018-05-25T18:32:58.496Z,13.33
2018-05-25T18:35:27.517Z,19.37
2018-05-25T18:37:55.798Z,9.47
2018-05-25T18:40:24.070Z,12.50
2018-05-25T18:42:52.379Z,12.83
2018-05-25T18:45:20.679Z,11.23
2018-05-25T19:05:54.460Z,9.03
2018-05-25T19:26:26.664Z,17.50
2018-05-25T19:46:58.864Z,12.70
2018-05-25T20:07:35.374Z,7.90
2018-05-25T20:28:10.328Z,13.40
2018-05-25T20:48:46.861Z,12.50
2018-05-25T21:09:21.797Z,13.80
2018-05-25T21:29:53.997Z,17.40
2018-05-25T21:50:28.496Z,11.50
2018-05-25T22:11:00.549Z,11.70
2018-05-25T22:49:51.782Z,18.60
2018-05-25T23:10:25.989Z,10.93
2018-05-25T23:30:56.945Z,9.80
2018-05-25T23:51:30.393Z,14.30
